Terminal Aerodrome Forecast
Issued by NWS

Home | Current Version | Previous Version | Text Only | Print | Product List | Glossary On
Versions: 1 2 3 4 5 6 7 8 9 10 11 12 13 14 15 16
000
FTUS44 KLZK 012000 AAA
TAFPBF
TAF AMD
KPBF 012016Z 0120/0218 20006KT P6SM VCSH BKN009 OVC060
     FM020000 11003KT P6SM BKN050
     FM020600 01003KT P6SM SCT050 BKN250
      TEMPO 0209/0212 4SM BR
     FM021430 03004KT P6SM BKN050=

USA.gov is the U.S. government's official web portal to all federal, state and local government web resources and services.